Terminal Aerodrome Forecast
Issued by NWS Corpus Christi, TX

Home | Current Version | Previous Version | Text Only | Print | Product List | Glossary On
Versions: 1 2 3 4 5 6 7 8 9 10 11 12 13 14 15
000
FTUS44 KCRP 301000 AAA
TAFCRP
TAF AMD
KCRP 301051Z 3011/3106 16009KT P6SM SCT008 BKN018
      TEMPO 3011/3014 6SM BR BKN008
     FM301500 16015G22KT P6SM SCT012 BKN025
      TEMPO 3015/3016 BKN012 BKN025
     FM302100 14018G24KT P6SM SCT025 BKN250
     FM310100 15012KT P6SM SCT012 BKN200=

USA.gov is the U.S. government's official web portal to all federal, state and local government web resources and services.